Time;durP1;ratioP1;P1;durP2;ratioP2;P2;SDS_P1;SDS_P2;PMS_P1;PMS_P2;Temp;Humidity;BMP_temperature;BMP_pressure;BME280_temperature;BME280_humidity;BME280_pressure;Samples;Min_cycle;Max_cycle;Signal;HPM_P1;HPM_P2
2023/06/10 00:01:27;;;;;;;8.47;5.90;;;;;;;19.93;91.24;94278.88;5093161;28;20669;-43
2023/06/10 00:03:54;;;;;;;6.70;5.77;;;;;;;19.81;91.87;94277.91;5092273;28;20617;-43
2023/06/10 00:06:24;;;;;;;5.95;5.43;;;;;;;19.71;92.10;94282.75;5092661;28;20220;-44
2023/06/10 00:08:51;;;;;;;8.27;6.40;;;;;;;19.66;92.18;94269.59;5093186;28;20200;-41
2023/06/10 00:11:18;;;;;;;9.27;6.30;;;;;;;19.64;92.60;94271.59;5093017;28;20275;-44
2023/06/10 00:13:46;;;;;;;7.73;5.87;;;;;;;19.62;92.83;94269.22;5092840;28;20220;-43
2023/06/10 00:16:12;;;;;;;9.97;6.43;;;;;;;19.51;92.76;94264.59;5092333;28;20210;-41
2023/06/10 00:18:39;;;;;;;5.97;5.37;;;;;;;19.51;93.14;94273.19;5091491;28;20186;-44
2023/06/10 00:21:06;;;;;;;5.87;5.33;;;;;;;19.40;92.81;94275.63;5091548;28;20197;-44
2023/06/10 00:23:38;;;;;;;9.17;5.00;;;;;;;19.31;92.86;94280.22;5093091;28;20182;-43
2023/06/10 00:26:04;;;;;;;6.40;5.40;;;;;;;19.28;92.85;94280.59;5092642;28;20276;-42
2023/06/10 00:28:31;;;;;;;5.60;5.10;;;;;;;19.24;92.91;94280.22;5091876;28;20276;-44
2023/06/10 00:31:00;;;;;;;5.90;5.30;;;;;;;19.18;93.06;94267.25;5092127;28;20218;-42
2023/06/10 00:33:26;;;;;;;8.57;5.53;;;;;;;19.21;93.22;94275.44;5092516;28;20292;-43
2023/06/10 00:35:53;;;;;;;7.73;5.53;;;;;;;19.21;93.40;94277.22;5091610;28;20204;-43
2023/06/10 00:38:20;;;;;;;8.23;5.27;;;;;;;19.19;93.63;94279.22;5092652;28;20186;-44
2023/06/10 00:40:47;;;;;;;8.47;5.97;;;;;;;19.23;93.60;94276.03;5092488;28;20193;-44
2023/06/10 00:43:14;;;;;;;7.67;6.07;;;;;;;19.14;93.60;94260.88;5092617;28;20244;-44
2023/06/10 00:45:40;;;;;;;7.97;6.00;;;;;;;19.14;94.02;94269.47;5092137;28;20197;-45
2023/06/10 00:48:09;;;;;;;7.30;6.60;;;;;;;19.19;94.04;94279.22;5092036;28;20664;-45
2023/06/10 00:50:39;;;;;;;7.20;6.17;;;;;;;19.19;93.75;94269.66;5091165;28;20186;-43
2023/06/10 00:53:06;;;;;;;9.80;6.93;;;;;;;19.18;94.06;94275.03;5092357;28;20182;-44
2023/06/10 00:55:33;;;;;;;9.23;6.53;;;;;;;19.16;94.04;94274.44;5092369;28;20278;-45
2023/06/10 00:58:00;;;;;;;9.77;7.27;;;;;;;19.16;94.01;94270.03;5092132;28;20194;-43
2023/06/10 01:00:27;;;;;;;7.70;6.90;;;;;;;19.21;93.88;94279.81;5092128;28;20190;-45
2023/06/10 01:02:54;;;;;;;8.70;6.67;;;;;;;18.73;93.82;94199.69;5091215;28;20641;-46
2023/06/10 01:05:24;;;;;;;7.40;6.70;;;;;;;19.05;94.22;94257.69;5091568;28;20193;-44
2023/06/10 01:07:57;;;;;;;8.80;7.10;;;;;;;19.24;94.28;94287.19;5091525;28;20194;-42
2023/06/10 01:10:31;;;;;;;9.30;7.47;;;;;;;19.22;94.31;94282.22;5092086;28;20186;-45
2023/06/10 01:13:02;;;;;;;7.10;6.40;;;;;;;19.21;94.77;94283.22;5091621;28;20757;-44
2023/06/10 01:15:30;;;;;;;7.70;5.90;;;;;;;19.20;95.10;94286.00;5091670;28;20178;-44
2023/06/10 01:17:58;;;;;;;6.57;5.90;;;;;;;19.20;95.12;94289.38;5091023;28;20228;-45
2023/06/10 01:20:28;;;;;;;7.10;6.30;;;;;;;19.20;95.35;94276.41;5091447;28;20256;-45
2023/06/10 01:22:57;;;;;;;9.37;6.60;;;;;;;19.23;95.73;94283.00;5091214;28;20196;-44
2023/06/10 01:25:27;;;;;;;11.60;6.53;;;;;;;19.24;95.79;94285.38;5091222;28;20193;-44
2023/06/10 01:28:02;;;;;;;7.83;6.07;;;;;;;19.18;95.64;94283.63;5091595;28;20242;-44
2023/06/10 01:30:38;;;;;;;7.30;6.57;;;;;;;19.18;96.16;94286.22;5090963;28;20189;-44
2023/06/10 01:33:07;;;;;;;8.10;6.23;;;;;;;19.16;96.14;94280.41;5091168;28;20708;-42
2023/06/10 01:35:36;;;;;;;10.13;6.07;;;;;;;19.16;96.62;94282.22;5090786;28;20193;-44
2023/06/10 01:38:05;;;;;;;7.53;6.00;;;;;;;18.99;96.49;94254.09;5090944;28;20196;-44
2023/06/10 01:40:33;;;;;;;7.23;6.10;;;;;;;19.15;96.60;94283.22;5091420;28;20193;-42
2023/06/10 01:43:00;;;;;;;7.00;6.00;;;;;;;19.09;96.73;94274.44;5090889;28;20185;-43
2023/06/10 01:45:27;;;;;;;7.83;5.87;;;;;;;19.13;96.86;94274.81;5091302;28;20193;-45
2023/06/10 01:47:53;;;;;;;6.17;5.57;;;;;;;19.15;96.80;94278.81;5090945;28;20185;-45
2023/06/10 01:50:20;;;;;;;8.77;5.57;;;;;;;19.16;96.70;94280.41;5090709;28;20182;-44
2023/06/10 01:52:47;;;;;;;10.93;6.30;;;;;;;19.19;96.35;94280.00;5091141;28;20229;-44
2023/06/10 01:55:15;;;;;;;6.40;5.80;;;;;;;19.21;95.96;94266.84;5091048;28;20658;-44
2023/06/10 01:57:42;;;;;;;6.20;5.60;;;;;;;19.22;96.07;94258.88;5090086;28;20182;-44
2023/06/10 02:00:10;;;;;;;7.23;5.37;;;;;;;19.23;95.65;94257.88;5091486;28;20185;-45
2023/06/10 02:02:36;;;;;;;7.27;5.43;;;;;;;19.24;95.50;94256.88;5090411;28;20182;-45
2023/06/10 02:05:03;;;;;;;6.53;5.20;;;;;;;19.19;95.17;94248.91;5089860;28;20178;-45
2023/06/10 02:07:30;;;;;;;6.40;5.03;;;;;;;19.26;94.96;94254.91;5091056;28;20209;-45
2023/06/10 02:09:57;;;;;;;7.27;5.30;;;;;;;19.29;94.89;94251.06;5090596;28;20193;-43
2023/06/10 02:12:25;;;;;;;8.50;5.50;;;;;;;19.32;94.71;94247.31;5090604;28;20229;-45
2023/06/10 02:14:52;;;;;;;8.87;5.83;;;;;;;19.28;94.50;94239.13;5090579;28;20185;-44
2023/06/10 02:17:19;;;;;;;6.83;6.13;;;;;;;19.34;94.36;94247.88;5090189;28;20217;-45
2023/06/10 02:19:52;;;;;;;8.40;5.10;;;;;;;19.32;94.25;94236.94;5089536;28;20273;-44
2023/06/10 02:22:20;;;;;;;7.47;5.40;;;;;;;19.16;93.97;94210.41;5070298;28;20198;-45
2023/06/10 02:24:47;;;;;;;6.43;5.33;;;;;;;19.38;94.12;94238.69;5078370;28;20586;-45
2023/06/10 02:27:14;;;;;;;7.13;5.63;;;;;;;19.38;94.03;94241.28;5090173;28;20580;-45
2023/06/10 02:29:43;;;;;;;6.27;5.30;;;;;;;19.30;94.03;94226.78;5090478;28;20285;-45
2023/06/10 02:32:10;;;;;;;5.90;5.30;;;;;;;19.40;93.71;94234.13;5090017;28;20225;-44
2023/06/10 02:34:37;;;;;;;6.13;4.90;;;;;;;19.42;93.74;94238.09;5089523;28;20213;-45
2023/06/10 02:37:04;;;;;;;7.87;5.17;;;;;;;19.46;93.70;94231.50;5090242;28;20568;-45
2023/06/10 02:39:31;;;;;;;6.73;5.90;;;;;;;19.50;93.97;94237.06;5090210;28;20189;-45
2023/06/10 02:41:58;;;;;;;6.97;5.40;;;;;;;19.41;93.88;94227.94;5090453;28;20711;-45
2023/06/10 02:44:25;;;;;;;5.73;5.17;;;;;;;19.38;94.22;94223.94;5089834;28;20188;-45
2023/06/10 02:46:53;;;;;;;6.17;5.00;;;;;;;19.39;94.15;94228.16;5090171;28;20250;-45
2023/06/10 02:49:19;;;;;;;6.73;5.60;;;;;;;19.37;94.01;94224.16;5089773;28;20656;-44
2023/06/10 02:51:46;;;;;;;6.60;5.67;;;;;;;19.36;94.33;94223.34;5088916;28;20597;-42
2023/06/10 02:54:13;;;;;;;8.17;5.33;;;;;;;19.35;94.49;94221.78;5090429;28;20182;-43
2023/06/10 02:56:41;;;;;;;5.43;4.93;;;;;;;19.37;94.50;94222.34;5089918;28;20194;-45
2023/06/10 02:59:08;;;;;;;6.20;5.60;;;;;;;19.38;94.85;94226.53;5090534;28;20197;-42
2023/06/10 03:01:36;;;;;;;8.87;4.93;;;;;;;19.38;95.58;94220.53;5089972;28;20196;-42
2023/06/10 03:04:05;;;;;;;7.60;5.53;;;;;;;19.37;95.90;94224.94;5089720;28;20217;-44
2023/06/10 03:06:33;;;;;;;8.33;5.80;;;;;;;19.28;96.51;94213.19;5089211;28;20186;-43
2023/06/10 03:09:01;;;;;;;6.30;5.70;;;;;;;19.37;97.43;94229.34;5089722;28;20648;-43
2023/06/10 03:11:27;;;;;;;6.37;5.77;;;;;;;19.37;97.63;94231.94;5089536;28;20610;-43
2023/06/10 03:13:55;;;;;;;5.60;5.10;;;;;;;19.37;97.65;94230.13;5089977;28;20182;-44
2023/06/10 03:16:22;;;;;;;8.93;5.27;;;;;;;19.26;98.22;94210.03;5089275;28;20229;-43
2023/06/10 03:18:50;;;;;;;5.93;5.40;;;;;;;19.41;99.57;94231.31;5089281;28;20197;-43
2023/06/10 03:21:18;;;;;;;7.57;6.03;;;;;;;19.40;99.86;94240.09;5089158;28;20197;-42
2023/06/10 03:23:45;;;;;;;9.80;5.63;;;;;;;19.36;99.30;94244.09;5089300;28;20793;-42
2023/06/10 03:26:14;;;;;;;6.60;5.00;;;;;;;19.26;100.00;94247.13;5089200;28;20659;-45
2023/06/10 03:28:41;;;;;;;5.37;4.67;;;;;;;19.22;100.00;94255.50;5089691;28;20194;-43
2023/06/10 03:31:07;;;;;;;6.87;5.67;;;;;;;19.14;100.00;94255.69;5092312;28;20550;-43
2023/06/10 03:33:35;;;;;;;5.93;5.00;;;;;;;19.09;100.00;94261.50;5093087;28;20707;-46
2023/06/10 03:36:02;;;;;;;7.33;6.40;;;;;;;19.08;100.00;94259.06;5093353;28;20182;-43
2023/06/10 03:38:30;;;;;;;8.07;6.40;;;;;;;19.08;100.00;94259.88;5093497;28;20599;-44
2023/06/10 03:40:57;;;;;;;8.77;7.10;;;;;;;19.07;100.00;94260.09;5093778;28;20185;-44
2023/06/10 03:43:24;;;;;;;10.67;7.20;;;;;;;19.08;100.00;94259.06;5092992;28;20607;-45
2023/06/10 03:45:51;;;;;;;8.60;7.10;;;;;;;19.09;100.00;94258.91;5093376;28;20645;-44
2023/06/10 03:48:17;;;;;;;10.10;7.73;;;;;;;19.11;100.00;94256.09;5092937;28;20200;-44
2023/06/10 03:50:44;;;;;;;9.53;7.43;;;;;;;19.16;100.00;94257.06;5092563;28;20201;-43
2023/06/10 03:53:11;;;;;;;10.17;7.60;;;;;;;19.17;100.00;94252.69;5092889;28;20259;-43
2023/06/10 03:55:39;;;;;;;8.37;7.57;;;;;;;19.18;100.00;94249.91;5093875;28;20186;-43
2023/06/10 03:58:06;;;;;;;10.03;7.63;;;;;;;19.20;100.00;94255.69;5093186;28;20182;-44
2023/06/10 04:00:41;;;;;;;13.63;7.87;;;;;;;19.21;100.00;94249.53;5093251;28;20185;-44
2023/06/10 04:03:09;;;;;;;9.87;7.20;;;;;;;19.22;100.00;94245.13;5093334;28;20276;-43
2023/06/10 04:05:36;;;;;;;8.27;6.87;;;;;;;19.21;100.00;94246.94;5092961;28;20242;-47
2023/06/10 04:08:02;;;;;;;7.83;6.73;;;;;;;19.23;100.00;94250.09;5092685;28;20197;-46
2023/06/10 04:10:29;;;;;;;9.70;7.17;;;;;;;19.25;100.00;94255.06;5093024;28;20649;-44
2023/06/10 04:12:58;;;;;;;7.57;6.80;;;;;;;19.25;100.00;94253.28;5092340;28;20217;-44
2023/06/10 04:15:25;;;;;;;7.20;6.20;;;;;;;19.27;100.00;94255.69;5092273;28;20204;-44
2023/06/10 04:17:52;;;;;;;6.72;6.10;;;;;;;19.30;100.00;94265.66;5092935;28;20192;-43
2023/06/10 04:20:20;;;;;;;8.43;6.47;;;;;;;19.33;100.00;94259.25;5089291;28;20255;-47
2023/06/10 04:22:46;;;;;;;11.67;6.23;;;;;;;19.33;100.00;94261.84;5090413;28;20193;-45
2023/06/10 04:25:13;;;;;;;7.87;6.27;;;;;;;19.30;100.00;94270.84;5090115;28;20251;-45
2023/06/10 04:27:40;;;;;;;7.10;6.40;;;;;;;19.29;100.00;94259.66;5090468;28;20205;-45
2023/06/10 04:30:09;;;;;;;9.20;6.63;;;;;;;19.33;100.00;94259.25;5090155;28;20190;-44
2023/06/10 04:32:36;;;;;;;7.23;6.53;;;;;;;19.27;100.00;94248.69;5089472;28;20225;-44
2023/06/10 04:35:03;;;;;;;7.33;6.10;;;;;;;19.35;100.00;94259.88;5089429;28;20186;-45
2023/06/10 04:37:30;;;;;;;8.77;7.00;;;;;;;19.38;100.00;94259.44;5089737;28;20198;-45
2023/06/10 04:39:56;;;;;;;7.30;6.33;;;;;;;19.40;100.00;94258.25;5090164;28;20240;-45
2023/06/10 04:42:23;;;;;;;7.88;7.18;;;;;;;19.48;100.00;94265.81;5088679;28;20628;-45
2023/06/10 04:44:50;;;;;;;7.07;6.37;;;;;;;19.53;100.00;94263.41;5089403;28;20194;-44
2023/06/10 04:47:18;;;;;;;7.87;7.13;;;;;;;19.56;99.97;94251.84;5089384;28;20190;-44
2023/06/10 04:49:45;;;;;;;9.03;7.20;;;;;;;19.73;99.93;94263.41;5089552;28;20197;-46
2023/06/10 04:52:13;;;;;;;8.87;7.23;;;;;;;19.76;99.68;94264.78;5089073;28;20679;-45
2023/06/10 04:54:40;;;;;;;11.57;7.53;;;;;;;19.80;99.41;94261.56;5089474;28;20190;-44
2023/06/10 04:57:08;;;;;;;11.48;7.60;;;;;;;19.88;99.61;94257.94;5089090;28;20750;-45
2023/06/10 04:59:37;;;;;;;8.20;7.10;;;;;;;19.93;99.30;94258.13;5089915;28;20190;-44
2023/06/10 05:02:04;;;;;;;8.75;7.35;;;;;;;19.97;99.20;94255.91;5088800;28;20190;-42
2023/06/10 05:04:32;;;;;;;9.13;7.80;;;;;;;19.97;99.17;94258.50;5088781;28;20186;-45
2023/06/10 05:06:59;;;;;;;10.13;7.93;;;;;;;19.95;99.23;94250.16;5088481;28;20708;-45
2023/06/10 05:09:26;;;;;;;9.25;7.53;;;;;;;19.97;99.28;94259.31;5089654;28;20211;-44
2023/06/10 05:11:54;;;;;;;9.50;7.30;;;;;;;19.96;99.01;94259.53;5089069;28;20182;-44
2023/06/10 05:14:21;;;;;;;10.00;7.82;;;;;;;19.97;98.59;94259.31;5089201;28;20585;-44
2023/06/10 05:16:48;;;;;;;9.20;7.13;;;;;;;19.97;98.58;94255.91;5088736;28;20318;-45
2023/06/10 05:19:16;;;;;;;10.93;7.87;;;;;;;19.93;98.48;94252.94;5088570;28;20189;-44
2023/06/10 05:21:45;;;;;;;8.82;7.82;;;;;;;19.94;98.39;94251.13;5088767;28;20217;-45
2023/06/10 05:24:11;;;;;;;10.13;7.30;;;;;;;19.94;98.39;94254.53;5088918;28;20652;-44
2023/06/10 05:26:39;;;;;;;10.02;8.18;;;;;;;20.01;98.25;94254.50;5088923;28;20645;-44
2023/06/10 05:29:05;;;;;;;9.48;7.38;;;;;;;19.99;97.91;94259.91;5089027;28;20190;-45
2023/06/10 05:31:32;;;;;;;10.18;7.53;;;;;;;19.98;97.87;94260.88;5088611;28;20193;-43
2023/06/10 05:33:59;;;;;;;10.33;7.40;;;;;;;20.04;97.93;94260.09;5088726;28;20209;-45
2023/06/10 05:36:26;;;;;;;10.32;7.38;;;;;;;20.12;97.52;94269.44;5088180;28;20193;-44
2023/06/10 05:38:54;;;;;;;14.30;7.15;;;;;;;20.20;97.40;94268.38;5088641;28;20643;-44
2023/06/10 05:41:21;;;;;;;8.57;6.97;;;;;;;20.31;96.67;94265.16;5086480;28;20464;-44
2023/06/10 05:43:48;;;;;;;9.13;6.70;;;;;;;20.34;95.29;94269.94;5090964;28;20193;-41
2023/06/10 05:46:15;;;;;;;11.77;6.22;;;;;;;20.45;95.10;94273.66;5091446;28;20626;-47
2023/06/10 05:48:42;;;;;;;7.18;6.47;;;;;;;20.61;94.67;94275.00;5088501;28;20265;-45
2023/06/10 05:51:10;;;;;;;5.72;5.22;;;;;;;20.69;93.12;94257.34;5070966;28;20202;-47
2023/06/10 05:53:38;;;;;;;6.80;5.47;;;;;;;20.85;91.91;94284.59;5089274;28;20209;-42
2023/06/10 05:56:06;;;;;;;6.25;5.38;;;;;;;20.83;90.18;94252.84;5090435;28;20212;-44
2023/06/10 05:58:33;;;;;;;6.75;6.05;;;;;;;20.99;90.18;94270.53;5070567;28;20194;-45
2023/06/10 06:01:00;;;;;;;6.85;5.07;;;;;;;21.08;88.87;94276.25;5070646;28;20630;-45
2023/06/10 06:03:28;;;;;;;8.68;5.50;;;;;;;21.04;88.41;94252.47;5074643;28;20557;-47
2023/06/10 06:05:55;;;;;;;8.35;5.43;;;;;;;21.34;87.08;94282.28;5090856;28;20198;-43
2023/06/10 06:08:21;;;;;;;6.65;5.00;;;;;;;21.29;87.01;94265.47;5090514;28;20247;-45
2023/06/10 06:10:48;;;;;;;8.85;5.82;;;;;;;21.45;87.22;94281.56;5089868;28;20190;-46
2023/06/10 06:13:16;;;;;;;6.10;5.25;;;;;;;;;;5090466;28;20221;-45
2023/06/10 06:15:43;;;;;;;7.18;5.40;;;;;;;21.58;87.01;94272.81;5090715;28;20712;-46
2023/06/10 06:18:10;;;;;;;5.70;4.93;;;;;;;21.68;85.65;94279.13;5091067;28;20193;-45
2023/06/10 06:20:37;;;;;;;8.43;5.13;;;;;;;21.73;84.77;94278.47;5074021;28;20198;-46
2023/06/10 06:23:03;;;;;;;6.05;4.40;;;;;;;21.77;83.48;94277.84;5067877;28;20194;-45
2023/06/10 06:25:30;;;;;;;7.60;4.30;;;;;;;21.82;83.02;94287.59;5067818;28;20194;-44
2023/06/10 06:27:57;;;;;;;10.63;5.25;;;;;;;21.90;82.80;94281.31;5068223;28;20194;-41
2023/06/10 06:30:25;;;;;;;8.23;5.15;;;;;;;21.94;82.99;94277.25;5067506;28;20186;-47
2023/06/10 06:32:52;;;;;;;5.47;4.97;;;;;;;22.03;83.42;94289.75;5067340;28;20218;-44
2023/06/10 06:35:19;;;;;;;7.47;5.90;;;;;;;22.12;83.24;94292.06;5067397;28;20182;-44
2023/06/10 06:37:46;;;;;;;8.52;5.88;;;;;;;22.12;83.30;94271.22;5067561;28;20191;-42
2023/06/10 06:40:13;;;;;;;6.45;5.22;;;;;;;22.24;82.84;94280.72;5067742;28;20186;-43
2023/06/10 06:42:40;;;;;;;4.60;4.20;;;;;;;22.27;81.01;94287.28;5067205;28;20651;-46
2023/06/10 06:45:08;;;;;;;11.57;4.47;;;;;;;22.15;80.02;94289.84;5067237;28;20206;-44
2023/06/10 06:47:36;;;;;;;8.00;4.22;;;;;;;22.04;80.44;94265.28;5067130;28;20197;-44
2023/06/10 06:50:03;;;;;;;7.25;4.97;;;;;;;22.17;80.21;94277.41;5067410;28;20194;-43
2023/06/10 06:52:30;;;;;;;4.90;4.40;;;;;;;22.20;80.12;94269.16;5067292;28;20264;-44
2023/06/10 06:54:57;;;;;;;5.18;4.68;;;;;;;22.33;80.22;94270.00;5067477;28;20178;-42
2023/06/10 06:57:24;;;;;;;6.72;4.75;;;;;;;22.43;80.17;94276.25;5066835;28;20198;-43
2023/06/10 06:59:50;;;;;;;7.30;4.32;;;;;;;22.45;79.51;94273.41;5067339;28;20644;-45
2023/06/10 07:02:18;;;;;;;4.43;4.03;;;;;;;22.52;79.04;94272.31;5066934;28;20201;-44
2023/06/10 07:04:48;;;;;;;6.70;4.40;;;;;;;22.57;79.07;94270.88;5067214;28;20315;-42
2023/06/10 07:07:15;;;;;;;8.35;4.10;;;;;;;22.71;78.12;94267.88;5066817;28;20198;-47
2023/06/10 07:09:42;;;;;;;5.22;4.35;;;;;;;22.89;77.15;94271.41;5067368;28;20222;-45
2023/06/10 07:12:10;;;;;;;6.97;4.10;;;;;;;22.94;77.10;94268.97;5066753;28;20313;-42
2023/06/10 07:14:37;;;;;;;6.18;4.57;;;;;;;23.08;76.46;94259.09;5067228;28;20229;-46
2023/06/10 07:17:04;;;;;;;4.63;3.67;;;;;;;23.16;75.63;94259.56;5067120;28;20226;-44
2023/06/10 07:19:30;;;;;;;6.10;4.38;;;;;;;23.24;75.31;94266.25;5067019;28;20186;-45
2023/06/10 07:21:59;;;;;;;4.97;4.00;;;;;;;23.29;74.00;94261.94;5067062;28;20198;-43
2023/06/10 07:24:25;;;;;;;6.35;4.97;;;;;;;23.36;73.31;94253.19;5066742;28;20703;-46
2023/06/10 07:26:52;;;;;;;6.38;4.40;;;;;;;23.46;72.38;94254.22;5067519;28;20185;-42
2023/06/10 07:29:19;;;;;;;4.95;3.97;;;;;;;23.50;71.51;94257.97;5066814;28;20281;-44
2023/06/10 07:31:46;;;;;;;4.40;3.83;;;;;;;23.54;71.00;94253.09;5066750;28;20190;-44
2023/06/10 07:34:13;;;;;;;6.05;3.75;;;;;;;23.67;70.99;94258.09;5067003;28;20224;-43
2023/06/10 07:36:39;;;;;;;8.30;4.68;;;;;;;23.91;70.93;94258.06;5067240;28;20205;-44
2023/06/10 07:39:07;;;;;;;4.72;4.25;;;;;;;24.07;69.90;94259.94;5067211;28;20198;-44
2023/06/10 07:41:35;;;;;;;5.50;3.63;;;;;;;24.27;70.20;94262.94;5067760;28;20182;-46
2023/06/10 07:44:02;;;;;;;3.85;3.47;;;;;;;24.48;68.80;94255.50;5067137;28;20208;-43
2023/06/10 07:46:28;;;;;;;4.75;4.15;;;;;;;24.55;65.86;94264.00;5067075;28;20186;-46
2023/06/10 07:48:55;;;;;;;5.82;4.75;;;;;;;24.63;65.69;94263.63;5066788;28;20186;-42
2023/06/10 07:51:23;;;;;;;5.28;4.72;;;;;;;24.59;65.81;94259.88;5066831;28;20734;-48
2023/06/10 07:53:50;;;;;;;6.85;4.15;;;;;;;24.50;66.12;94253.44;5066809;28;20210;-45
2023/06/10 07:56:18;;;;;;;4.80;4.18;;;;;;;24.81;65.46;94259.19;5066552;28;20588;-45
2023/06/10 07:58:45;;;;;;;5.03;4.53;;;;;;;25.26;65.14;94256.56;5066511;28;20281;-45
2023/06/10 08:01:12;;;;;;;5.57;4.15;;;;;;;25.52;62.28;94258.50;5066770;28;20194;-44
2023/06/10 08:03:38;;;;;;;4.05;3.65;;;;;;;25.47;60.41;94261.03;5067024;28;20191;-45
2023/06/10 08:06:06;;;;;;;8.10;4.57;;;;;;;25.54;59.70;94258.25;5066414;28;20226;-43
2023/06/10 08:08:34;;;;;;;4.43;3.80;;;;;;;25.77;59.27;94244.16;5048364;28;20326;-45
2023/06/10 08:11:01;;;;;;;4.30;3.70;;;;;;;26.23;58.04;94260.44;5066768;28;20623;-45
2023/06/10 08:13:29;;;;;;;8.82;6.65;;;;;;;26.51;55.70;94247.16;5066439;28;20255;-45
2023/06/10 08:15:56;;;;;;;4.18;3.78;;;;;;;26.73;54.53;94248.91;5066169;28;20729;-44
2023/06/10 08:18:23;;;;;;;4.28;3.40;;;;;;;26.88;53.01;94249.03;5082471;28;20204;-45
2023/06/10 08:20:50;;;;;;;4.30;3.85;;;;;;;27.16;52.14;94247.16;5092490;28;20190;-45
2023/06/10 08:23:16;;;;;;;4.40;3.17;;;;;;;27.42;52.81;94232.41;5092541;28;20190;-44
2023/06/10 08:25:43;;;;;;;4.38;3.95;;;;;;;27.74;51.73;94241.00;5092519;28;20189;-43
2023/06/10 08:28:10;;;;;;;7.57;3.88;;;;;;;27.55;50.13;94176.78;5092311;28;20576;-44
2023/06/10 08:30:38;;;;;;;4.28;3.88;;;;;;;27.88;50.68;94233.44;5092638;28;20190;-44
2023/06/10 08:33:05;;;;;;;6.22;3.35;;;;;;;27.99;49.54;94229.81;5092162;28;20243;-45
2023/06/10 08:35:32;;;;;;;4.13;3.72;;;;;;;28.19;50.41;94233.53;5092380;28;20612;-45
2023/06/10 08:37:58;;;;;;;4.45;4.05;;;;;;;28.35;50.53;94229.94;5092243;28;20660;-47
2023/06/10 08:40:25;;;;;;;4.13;3.65;;;;;;;28.50;49.34;94232.59;5092233;28;20193;-47
2023/06/10 08:43:01;;;;;;;6.95;3.22;;;;;;;28.37;48.29;94198.09;5092115;28;20190;-45
2023/06/10 08:45:32;;;;;;;4.82;3.80;;;;;;;28.34;48.73;94199.41;5092308;28;20221;-43
2023/06/10 08:48:02;;;;;;;4.82;3.88;;;;;;;28.50;48.77;94218.66;5092144;28;20281;-45
2023/06/10 08:50:30;;;;;;;5.57;3.70;;;;;;;28.54;49.18;94224.19;5092230;28;20189;-47
2023/06/10 08:52:59;;;;;;;4.13;3.65;;;;;;;28.36;48.59;94223.63;5092071;28;20217;-44
2023/06/10 08:55:32;;;;;;;3.78;3.40;;;;;;;28.36;49.34;94215.72;5092176;28;20554;-42
2023/06/10 08:58:00;;;;;;;5.47;3.40;;;;;;;28.15;48.09;94187.78;5092045;28;20189;-44
2023/06/10 09:00:28;;;;;;;6.13;3.20;;;;;;;28.24;48.18;94207.28;5092285;28;20186;-43
2023/06/10 09:02:56;;;;;;;5.35;3.72;;;;;;;28.26;48.06;94208.59;5091745;28;20194;-44
2023/06/10 09:05:24;;;;;;;5.00;3.50;;;;;;;28.00;48.70;94207.72;5091895;28;20282;-45
2023/06/10 09:07:53;;;;;;;5.30;3.92;;;;;;;27.95;48.76;94204.28;5091678;28;20609;-47
2023/06/10 09:10:20;;;;;;;4.35;3.95;;;;;;;27.79;49.21;94202.66;5091923;28;20551;-44
2023/06/10 09:12:47;;;;;;;4.55;4.15;;;;;;;27.57;49.85;94195.69;5091424;28;20613;-47
2023/06/10 09:15:17;;;;;;;7.03;4.22;;;;;;;27.53;49.26;94194.63;5091875;28;20225;-44
2023/06/10 09:17:44;;;;;;;4.25;3.70;;;;;;;27.40;49.50;94206.38;5092091;28;20198;-44
2023/06/10 09:20:12;;;;;;;5.47;3.60;;;;;;;27.32;49.88;94209.47;5091582;28;20190;-44
2023/06/10 09:22:42;;;;;;;8.38;4.47;;;;;;;27.17;50.73;94186.53;5091224;28;20194;-46
2023/06/10 09:25:10;;;;;;;5.50;3.40;;;;;;;27.33;50.63;94197.13;5091811;28;20546;-45
2023/06/10 09:27:46;;;;;;;4.05;3.60;;;;;;;27.45;50.63;94193.25;5091337;28;20289;-43
2023/06/10 09:30:26;;;;;;;4.85;3.28;;;;;;;27.44;49.99;94188.28;5091741;28;20276;-46
2023/06/10 09:32:55;;;;;;;4.65;3.75;;;;;;;27.40;49.89;94195.06;5091624;28;20264;-48
2023/06/10 09:35:22;;;;;;;3.42;3.13;;;;;;;27.33;49.40;94194.50;5090981;28;20278;-44
2023/06/10 09:37:53;;;;;;;3.17;2.88;;;;;;;27.24;49.29;94194.19;5091050;28;20190;-45
2023/06/10 09:40:20;;;;;;;4.10;3.70;;;;;;;27.22;49.91;94188.41;5091091;28;20225;-45
2023/06/10 09:42:48;;;;;;;3.47;3.17;;;;;;;27.24;49.91;94184.47;5091043;28;20276;-44
2023/06/10 09:45:15;;;;;;;4.88;3.47;;;;;;;27.37;49.16;94183.22;5091251;28;20189;-45
2023/06/10 09:47:42;;;;;;;4.85;3.50;;;;;;;27.42;48.76;94179.88;5091104;28;20631;-46
2023/06/10 09:50:10;;;;;;;4.47;3.30;;;;;;;27.54;49.27;94172.56;5090612;28;20194;-48
2023/06/10 09:52:39;;;;;;;3.60;3.30;;;;;;;27.63;49.50;94171.00;5091101;28;20243;-47
2023/06/10 09:55:09;;;;;;;3.13;2.92;;;;;;;27.60;49.25;94168.13;5090743;28;20235;-43
2023/06/10 09:57:37;;;;;;;4.60;3.17;;;;;;;27.44;49.54;94167.25;5091096;28;20564;-44
2023/06/10 10:00:07;;;;;;;5.82;3.30;;;;;;;27.35;49.62;94169.56;5090948;28;20189;-46
2023/06/10 10:02:45;;;;;;;4.10;3.47;;;;;;;27.16;50.56;94163.16;5091079;28;20189;-48
2023/06/10 10:05:13;;;;;;;5.53;3.75;;;;;;;27.23;51.17;94163.72;5091019;28;20280;-46
2023/06/10 10:07:40;;;;;;;10.70;3.70;;;;;;;27.27;50.86;94159.56;5090628;28;20200;-45
2023/06/10 10:10:09;;;;;;;3.30;2.85;;;;;;;27.24;50.49;94155.59;5090491;28;20637;-44
2023/06/10 10:12:37;;;;;;;5.00;3.65;;;;;;;27.16;49.41;94153.47;5091086;28;20186;-46
2023/06/10 10:15:07;;;;;;;5.47;3.85;;;;;;;27.00;49.73;94147.31;5090548;28;20221;-46
2023/06/10 10:17:35;;;;;;;7.55;4.30;;;;;;;26.82;50.07;94157.41;5090489;28;20552;-44
2023/06/10 10:20:05;;;;;;;6.53;4.22;;;;;;;26.71;50.25;94148.66;5090492;28;20196;-46
2023/06/10 10:22:38;;;;;;;5.55;3.88;;;;;;;26.56;50.80;94141.47;5090230;28;20691;-49
2023/06/10 10:25:11;;;;;;;4.95;3.33;;;;;;;26.60;50.08;94128.63;5090156;28;20201;-45
2023/06/10 10:27:44;;;;;;;3.63;3.25;;;;;;;26.75;49.43;94123.50;5090229;28;20276;-45
2023/06/10 10:30:12;;;;;;;5.38;3.85;;;;;;;27.01;49.51;94150.72;5089904;28;20207;-46
2023/06/10 10:32:44;;;;;;;4.80;3.10;;;;;;;27.00;49.74;94134.19;5090246;28;20181;-46
2023/06/10 10:35:17;;;;;;;4.82;3.60;;;;;;;27.01;49.14;94142.84;5090256;28;20308;-45
2023/06/10 10:37:44;;;;;;;3.15;2.90;;;;;;;27.11;49.20;94142.13;5090135;28;20577;-46
2023/06/10 10:40:14;;;;;;;3.83;3.33;;;;;;;27.17;48.89;94134.03;5089643;28;20178;-45
2023/06/10 10:42:42;;;;;;;4.93;3.58;;;;;;;27.22;48.45;94120.16;5089942;28;20200;-48
2023/06/10 10:45:10;;;;;;;3.90;3.50;;;;;;;27.41;47.34;94126.53;5089876;28;20243;-47
2023/06/10 10:47:39;;;;;;;3.90;3.00;;;;;;;27.58;47.43;94128.97;5089866;28;20182;-46
2023/06/10 10:50:15;;;;;;;3.70;3.40;;;;;;;27.65;45.90;94115.59;5089759;28;20684;-46
2023/06/10 10:52:53;;;;;;;3.50;3.20;;;;;;;27.72;46.02;94113.50;5089823;28;20292;-43
2023/06/10 10:55:21;;;;;;;2.78;2.58;;;;;;;27.79;46.28;94114.09;5089464;28;20209;-45
2023/06/10 10:57:55;;;;;;;3.20;2.70;;;;;;;27.83;46.17;94109.09;5089927;28;20247;-47
2023/06/10 11:00:33;;;;;;;3.25;2.92;;;;;;;27.91;46.21;94106.75;5089969;28;20228;-45
2023/06/10 11:03:06;;;;;;;2.83;2.42;;;;;;;28.15;46.48;94116.78;5089968;28;20695;-46
2023/06/10 11:05:37;;;;;;;3.95;3.30;;;;;;;28.18;45.83;94114.41;5090087;28;20639;-47
2023/06/10 11:08:04;;;;;;;3.92;3.42;;;;;;;28.21;45.68;94113.91;5089736;28;20239;-46
2023/06/10 11:10:33;;;;;;;3.13;2.92;;;;;;;28.19;45.99;94107.31;5090088;28;20209;-45
2023/06/10 11:13:00;;;;;;;4.63;2.95;;;;;;;28.11;46.33;94107.81;5089661;28;20205;-47
2023/06/10 11:15:29;;;;;;;5.68;3.42;;;;;;;27.93;46.05;94103.88;5089543;28;20571;-47
2023/06/10 11:18:16;;;;;;;4.03;3.25;;;;;;;27.81;46.43;94098.88;5089804;28;20665;-47
2023/06/10 11:20:51;;;;;;;4.38;3.28;;;;;;;27.76;46.40;94098.81;5089956;28;20200;-44
2023/06/10 11:23:40;;;;;;;3.50;3.20;;;;;;;27.84;46.42;94097.53;5089470;28;20275;-47
2023/06/10 11:26:33;;;;;;;4.78;3.17;;;;;;;27.94;46.01;94098.38;5089632;28;20205;-45
2023/06/10 11:29:07;;;;;;;4.63;3.13;;;;;;;27.97;45.49;94092.56;5007459;28;20188;-47
2023/06/10 11:31:43;;;;;;;3.22;2.95;;;;;;;27.84;45.32;94068.63;5007473;28;20250;-51
2023/06/10 11:34:10;;;;;;;3.78;3.25;;;;;;;27.81;45.39;94079.66;5007609;28;20231;-47
2023/06/10 11:36:42;;;;;;;4.53;3.40;;;;;;;27.69;44.42;94069.38;5007206;28;20188;-47